createdAt,value
2023-02-12T00:02:36.571Z,1.73
2023-02-12T00:06:38.197Z,1.76
2023-02-12T00:10:40.446Z,1.59
2023-02-12T00:14:41.821Z,1.61
2023-02-12T00:18:45.229Z,1.58
2023-02-12T00:22:46.598Z,1.61
2023-02-12T00:26:47.918Z,1.62
2023-02-12T00:30:49.587Z,1.63
2023-02-12T00:34:52.398Z,1.61
2023-02-12T00:38:55.888Z,1.75
2023-02-12T00:42:57.243Z,1.66
2023-02-12T00:46:58.580Z,1.79
2023-02-12T00:51:01.491Z,1.93
2023-02-12T00:55:02.922Z,1.80
2023-02-12T00:59:04.287Z,1.93
2023-02-12T01:03:05.839Z,1.71
2023-02-12T01:07:08.986Z,1.95
2023-02-12T01:11:12.685Z,1.74
2023-02-12T01:15:14.749Z,1.77
2023-02-12T01:19:16.359Z,1.83
2023-02-12T01:23:19.063Z,1.78
2023-02-12T01:27:20.406Z,1.78
2023-02-12T01:31:23.157Z,1.77
2023-02-12T01:35:24.628Z,1.71
2023-02-12T01:39:27.347Z,1.70
2023-02-12T01:43:28.706Z,1.66
2023-02-12T01:47:30.130Z,1.65
2023-02-12T01:51:33.065Z,1.64
2023-02-12T01:55:35.822Z,1.60
2023-02-12T01:59:37.846Z,1.56
2023-02-12T02:03:39.802Z,1.57
2023-02-12T02:07:43.382Z,1.63
2023-02-12T02:11:46.135Z,1.53
2023-02-12T02:15:49.277Z,1.62
2023-02-12T02:20:02.427Z,1.57
2023-02-12T02:24:26.556Z,1.61
2023-02-12T02:28:39.954Z,1.55
2023-02-12T02:32:46.250Z,1.65
2023-02-12T02:37:00.020Z,1.63
2023-02-12T02:41:04.902Z,1.56
2023-02-12T02:45:11.690Z,1.48
2023-02-12T02:49:19.399Z,1.47
2023-02-12T02:53:22.130Z,1.57
2023-02-12T02:57:25.494Z,1.51
2023-02-12T03:01:28.967Z,1.56
2023-02-12T03:05:33.497Z,1.62
2023-02-12T03:09:37.694Z,1.64
2023-02-12T03:13:42.005Z,1.77
2023-02-12T03:17:45.177Z,1.57
2023-02-12T03:21:49.607Z,1.68
2023-02-12T03:25:53.671Z,1.57
2023-02-12T03:29:55.570Z,1.56
2023-02-12T03:34:04.219Z,1.62
2023-02-12T03:38:09.382Z,1.67
2023-02-12T03:42:13.915Z,1.68
2023-02-12T03:46:17.401Z,1.74
2023-02-12T03:50:20.472Z,1.72
2023-02-12T03:54:23.294Z,1.77
2023-02-12T03:58:28.443Z,2.03
2023-02-12T04:02:29.814Z,1.85
2023-02-12T04:06:31.191Z,1.94
2023-02-12T04:10:35.913Z,1.87
2023-02-12T04:14:42.053Z,1.80
2023-02-12T04:18:44.669Z,1.79
2023-02-12T04:22:50.488Z,1.86
2023-02-12T04:26:56.650Z,1.79
2023-02-12T04:30:59.797Z,1.74
2023-02-12T04:35:04.217Z,1.93
2023-02-12T04:39:08.468Z,1.93
2023-02-12T04:43:11.305Z,1.80
2023-02-12T04:47:13.141Z,1.92
2023-02-12T04:51:14.498Z,1.86
2023-02-12T04:55:15.953Z,1.84
2023-02-12T04:59:18.761Z,1.72
2023-02-12T05:03:20.114Z,1.72
2023-02-12T05:07:21.495Z,1.76
2023-02-12T05:11:23.139Z,1.85
2023-02-12T05:15:25.907Z,1.67
2023-02-12T05:19:27.281Z,1.76
2023-02-12T05:23:29.406Z,1.79
2023-02-12T05:27:30.807Z,2.02
2023-02-12T05:31:33.957Z,1.92
2023-02-12T05:35:35.680Z,1.84
2023-02-12T05:39:37.053Z,1.85
2023-02-12T05:43:38.742Z,1.76
2023-02-12T05:47:41.490Z,1.89
2023-02-12T05:51:42.873Z,1.77
2023-02-12T05:55:44.213Z,1.77
2023-02-12T05:59:45.620Z,1.89
2023-02-12T06:03:48.425Z,1.76
2023-02-12T06:07:49.826Z,1.94
2023-02-12T06:11:51.259Z,1.86
2023-02-12T06:15:52.706Z,1.97
2023-02-12T06:19:55.479Z,1.81
2023-02-12T06:23:57.052Z,1.81
2023-02-12T06:27:58.489Z,1.50
2023-02-12T06:31:59.946Z,1.50
2023-02-12T06:36:04.366Z,1.49
2023-02-12T06:40:06.617Z,1.55
2023-02-12T06:44:08.094Z,1.58
2023-02-12T06:48:09.498Z,1.65
2023-02-12T06:52:12.235Z,1.66
2023-02-12T06:56:13.690Z,1.73
2023-02-12T07:00:15.288Z,1.87
2023-02-12T07:04:16.731Z,1.85
2023-02-12T07:08:19.505Z,1.83
2023-02-12T07:12:20.894Z,1.89
2023-02-12T07:16:22.746Z,1.89
2023-02-12T07:20:24.194Z,1.91
2023-02-12T07:24:27.023Z,2.20
2023-02-12T07:28:28.435Z,2.22
2023-02-12T07:32:31.351Z,2.02
2023-02-12T07:36:33.636Z,2.18
2023-02-12T07:40:36.386Z,2.45
2023-02-12T07:44:37.748Z,2.61
2023-02-12T07:48:39.495Z,2.70
2023-02-12T07:52:40.832Z,2.61
2023-02-12T07:56:44.285Z,2.92
2023-02-12T08:00:45.724Z,2.91
2023-02-12T08:04:47.227Z,2.98
2023-02-12T08:08:50.533Z,3.23
2023-02-12T08:12:53.266Z,3.45
2023-02-12T08:16:54.694Z,3.65
2023-02-12T08:21:00.731Z,3.79
2023-02-12T08:25:02.129Z,3.88
2023-02-12T08:29:06.143Z,3.96
2023-02-12T08:33:07.481Z,4.07
2023-02-12T08:37:08.837Z,4.21
2023-02-12T08:41:11.220Z,4.15
2023-02-12T08:45:14.104Z,4.19
2023-02-12T08:49:16.294Z,4.25
2023-02-12T08:53:17.706Z,4.42
2023-02-12T08:57:19.093Z,4.59
2023-02-12T09:01:23.021Z,4.65
2023-02-12T09:05:24.555Z,4.94
2023-02-12T09:09:25.905Z,4.98
2023-02-12T09:13:27.250Z,5.14
2023-02-12T09:17:29.986Z,5.48
2023-02-12T09:21:31.401Z,5.61
2023-02-12T09:25:32.877Z,5.85
2023-02-12T09:29:34.242Z,5.94
2023-02-12T09:33:37.052Z,6.18
2023-02-12T09:37:38.452Z,6.30
2023-02-12T09:41:54.695Z,6.57
2023-02-12T09:46:00.673Z,6.99
2023-02-12T09:50:11.976Z,7.19
2023-02-12T09:54:14.405Z,7.46
2023-02-12T09:58:17.975Z,7.33
2023-02-12T10:02:20.059Z,7.36
2023-02-12T10:06:24.662Z,7.48
2023-02-12T10:10:36.191Z,7.47
2023-02-12T10:14:46.381Z,7.51
2023-02-12T10:19:06.247Z,7.69
2023-02-12T10:23:18.404Z,7.73
2023-02-12T10:27:24.849Z,7.87
2023-02-12T10:31:30.381Z,8.11
2023-02-12T10:35:32.799Z,8.23
2023-02-12T10:39:39.378Z,8.42
2023-02-12T10:43:40.935Z,8.58
2023-02-12T10:47:42.723Z,8.72
2023-02-12T10:51:52.145Z,8.74
2023-02-12T10:56:06.725Z,8.78
2023-02-12T11:00:21.258Z,8.93
2023-02-12T11:04:26.987Z,8.92
2023-02-12T11:08:31.039Z,9.00
2023-02-12T11:12:35.352Z,9.14
2023-02-12T11:16:37.787Z,9.20
2023-02-12T11:20:40.765Z,9.22
2023-02-12T11:24:42.111Z,9.19
2023-02-12T11:28:53.172Z,9.04
2023-02-12T11:32:54.615Z,9.06
2023-02-12T11:36:56.593Z,9.04
2023-02-12T11:41:00.366Z,9.11
2023-02-12T11:45:03.486Z,9.01
2023-02-12T11:49:06.004Z,9.01
2023-02-12T11:53:08.780Z,9.01
2023-02-12T11:57:33.119Z,9.12
2023-02-12T12:01:36.945Z,9.20
2023-02-12T12:05:42.000Z,9.30
2023-02-12T12:09:45.771Z,9.36
2023-02-12T12:13:49.300Z,9.40
2023-02-12T12:17:54.413Z,9.46
2023-02-12T12:21:58.757Z,9.46
2023-02-12T12:26:04.479Z,9.53
2023-02-12T12:30:11.425Z,9.55
2023-02-12T12:34:15.156Z,9.64
2023-02-12T12:38:21.699Z,9.87
2023-02-12T12:42:32.604Z,10.18
2023-02-12T12:46:52.312Z,10.23
2023-02-12T12:51:02.733Z,10.24
2023-02-12T12:55:14.089Z,10.31
2023-02-12T12:59:29.187Z,10.42
2023-02-12T13:03:50.654Z,9.95
2023-02-12T13:07:59.439Z,9.99
2023-02-12T13:12:13.918Z,10.11
2023-02-12T13:16:19.306Z,10.17
2023-02-12T13:20:25.407Z,10.04
2023-02-12T13:24:33.567Z,10.15
2023-02-12T13:28:36.656Z,10.36
2023-02-12T13:32:41.052Z,10.26
2023-02-12T13:36:42.775Z,10.08
2023-02-12T13:40:45.576Z,10.01
2023-02-12T13:44:50.756Z,9.94
2023-02-12T13:48:56.676Z,9.84
2023-02-12T13:52:59.803Z,9.85
2023-02-12T13:57:03.555Z,9.72
2023-02-12T14:01:05.743Z,9.54
2023-02-12T14:05:15.238Z,9.57
2023-02-12T14:09:20.184Z,9.55
2023-02-12T14:13:24.029Z,9.43
2023-02-12T14:17:41.610Z,9.05
2023-02-12T14:21:43.125Z,8.62
2023-02-12T14:25:46.439Z,8.52
2023-02-12T14:30:01.403Z,8.03
2023-02-12T14:34:21.342Z,7.72
2023-02-12T14:38:47.543Z,7.88
2023-02-12T14:42:55.193Z,7.63
2023-02-12T14:46:59.029Z,7.89
2023-02-12T14:51:02.111Z,7.92
2023-02-12T14:55:05.203Z,7.67
2023-02-12T14:59:06.843Z,7.34
2023-02-12T15:03:18.668Z,7.31
2023-02-12T15:07:24.265Z,7.21
2023-02-12T15:11:33.978Z,7.35
2023-02-12T15:15:39.154Z,7.15
2023-02-12T15:19:43.437Z,7.03
2023-02-12T15:23:45.534Z,6.90
2023-02-12T15:27:48.752Z,6.61
2023-02-12T15:31:51.294Z,6.53
2023-02-12T15:35:54.737Z,6.34
2023-02-12T15:39:58.000Z,6.16
2023-02-12T15:43:59.696Z,6.08
2023-02-12T15:48:07.099Z,5.68
2023-02-12T15:52:15.354Z,5.58
2023-02-12T15:56:17.960Z,5.24
2023-02-12T16:00:27.168Z,5.16
2023-02-12T16:04:30.287Z,4.97
2023-02-12T16:08:33.413Z,4.61
2023-02-12T16:12:35.782Z,3.99
2023-02-12T16:16:40.150Z,3.48
2023-02-12T16:20:41.549Z,3.33
2023-02-12T16:24:46.494Z,3.15
2023-02-12T16:28:48.548Z,2.71
2023-02-12T16:32:50.749Z,2.62
2023-02-12T16:36:52.097Z,2.53
2023-02-12T16:45:35.717Z,2.14
2023-02-12T16:49:37.065Z,2.13
2023-02-12T16:53:39.487Z,1.98
2023-02-12T16:57:41.262Z,1.71
2023-02-12T17:01:55.773Z,1.60
2023-02-12T17:05:57.604Z,1.56
2023-02-12T17:09:59.314Z,1.27
2023-02-12T17:14:00.658Z,1.33
2023-02-12T17:18:03.562Z,1.44
2023-02-12T17:22:05.019Z,1.33
2023-02-12T17:26:06.376Z,1.35
2023-02-12T17:30:08.706Z,1.33
2023-02-12T17:34:11.448Z,1.27
2023-02-12T17:38:12.846Z,1.32
2023-02-12T17:42:14.210Z,1.21
2023-02-12T17:46:18.413Z,1.14
2023-02-12T17:50:21.286Z,1.08
2023-02-12T17:54:22.772Z,0.98
2023-02-12T17:58:24.131Z,0.96
2023-02-12T18:02:25.520Z,1.02
2023-02-12T18:06:29.162Z,1.04
2023-02-12T18:10:30.497Z,0.94
2023-02-12T18:14:31.851Z,0.96
2023-02-12T18:18:33.564Z,0.98
2023-02-12T18:22:36.294Z,1.03
2023-02-12T18:26:37.616Z,1.07
2023-02-12T18:30:39.551Z,1.04
2023-02-12T18:34:41.236Z,1.05
2023-02-12T18:38:45.282Z,1.06
2023-02-12T18:42:46.631Z,1.11
2023-02-12T18:46:48.026Z,1.19
2023-02-12T18:50:49.407Z,1.17
2023-02-12T18:54:52.161Z,1.31
2023-02-12T18:58:56.940Z,1.33
2023-02-12T19:02:58.278Z,1.43
2023-02-12T19:06:59.793Z,1.45
2023-02-12T19:11:02.514Z,1.49
2023-02-12T19:15:04.016Z,1.48
2023-02-12T19:19:05.521Z,1.52
2023-02-12T19:23:06.923Z,1.59
2023-02-12T19:27:09.660Z,1.62
2023-02-12T19:31:13.441Z,1.61
2023-02-12T19:35:15.672Z,1.68
2023-02-12T19:39:18.152Z,1.66
2023-02-12T19:43:20.885Z,1.84
2023-02-12T19:47:22.258Z,1.80
2023-02-12T19:51:23.612Z,1.83
2023-02-12T19:55:24.987Z,1.75
2023-02-12T19:59:27.722Z,1.78
2023-02-12T20:03:29.088Z,1.92
2023-02-12T20:07:30.517Z,1.79
2023-02-12T20:11:33.227Z,1.91
2023-02-12T20:15:36.521Z,1.90
2023-02-12T20:19:37.950Z,1.83
2023-02-12T20:23:39.335Z,1.75
2023-02-12T20:27:40.668Z,1.80
2023-02-12T20:31:43.689Z,1.76
2023-02-12T20:35:45.085Z,1.77
2023-02-12T20:39:46.478Z,1.96
2023-02-12T20:43:48.244Z,1.93
2023-02-12T20:47:51.022Z,1.94
2023-02-12T20:51:52.399Z,1.95
2023-02-12T20:55:53.762Z,2.17
2023-02-12T20:59:55.168Z,2.31
2023-02-12T21:04:00.903Z,2.12
2023-02-12T21:08:02.220Z,2.14
2023-02-12T21:12:03.789Z,2.00
2023-02-12T21:16:06.754Z,2.29
2023-02-12T21:20:10.009Z,2.27
2023-02-12T21:24:13.026Z,2.19
2023-02-12T21:28:14.430Z,2.40
2023-02-12T21:32:16.013Z,2.28
2023-02-12T21:36:20.150Z,2.36
2023-02-12T21:40:22.066Z,2.14
2023-02-12T21:44:24.127Z,2.14
2023-02-12T21:48:25.479Z,2.21
2023-02-12T21:52:28.208Z,2.14
2023-02-12T21:56:29.916Z,2.24
2023-02-12T22:00:31.364Z,2.12
2023-02-12T22:04:32.800Z,2.14
2023-02-12T22:08:35.922Z,2.13
2023-02-12T22:12:37.302Z,2.09
2023-02-12T22:16:38.771Z,2.37
2023-02-12T22:20:40.229Z,2.24
2023-02-12T22:24:43.113Z,2.26
2023-02-12T22:28:45.883Z,2.13
2023-02-12T22:32:47.286Z,2.11
2023-02-12T22:36:48.701Z,2.05
2023-02-12T22:40:52.977Z,2.25
2023-02-12T22:44:54.371Z,2.06
2023-02-12T22:48:55.797Z,2.26
2023-02-12T22:52:57.198Z,2.08
2023-02-12T22:56:59.917Z,2.34
2023-02-12T23:01:04.425Z,2.00
2023-02-12T23:05:05.830Z,2.18
2023-02-12T23:09:14.902Z,1.87
2023-02-12T23:13:29.055Z,1.96
2023-02-12T23:17:31.147Z,1.95
2023-02-12T23:21:32.532Z,2.00
2023-02-12T23:25:34.069Z,1.92
2023-02-12T23:29:36.810Z,1.82
2023-02-12T23:33:38.257Z,1.78
2023-02-12T23:37:39.626Z,1.69
2023-02-12T23:41:41.045Z,1.77
2023-02-12T23:45:44.195Z,1.72
2023-02-12T23:49:45.599Z,1.65
2023-02-12T23:53:46.966Z,1.90
2023-02-12T23:57:48.322Z,1.72
